Terminal Aerodrome Forecast
Issued by NWS

Home | Current Version | Previous Version | Text Only | Print | Product List | Glossary Off
Versions: 1 2 3 4 5 6 7 8 9 10 11 12 13 14 15 16 17 18 19 20 21 22 23 24

000
FTUS43 KPAH 070918 AAB
TAFCGI
TAF AMD
KCGI 070918Z 0709/0806 21007KT P6SM BKN015
      TEMPO 0710/0714 SCT015 BKN060
     FM071400 21010KT P6SM SCT030 BKN050
     FM072000 23012KT P6SM VCTS SCT020CB BKN040
      TEMPO 0722/0802 3SM TSRA OVC020CB
     FM080300 25010KT P6SM BKN030=

USA.gov is the U.S. government's official web portal to all federal, state and local government web resources and services.